Time;durP1;ratioP1;P1;durP2;ratioP2;P2;SDS_P1;SDS_P2;PMS_P1;PMS_P2;Temp;Humidity;BMP_temperature;BMP_pressure;BME280_temperature;BME280_humidity;BME280_pressure;Samples;Min_cycle;Max_cycle;Signal;HPM_P1;HPM_P2
2021/06/10 00:00:51;;;;;;;29.48;24.67;;;16.80;99.90;;;;;;4950831;28;20038;-62
2021/06/10 00:03:17;;;;;;;31.83;26.50;;;16.80;99.90;;;;;;4971895;28;20035;-63
2021/06/10 00:05:44;;;;;;;31.67;26.48;;;16.70;99.90;;;;;;4970475;28;20715;-63
2021/06/10 00:08:10;;;;;;;29.75;25.20;;;16.70;99.90;;;;;;4964182;28;20039;-62
2021/06/10 00:10:39;;;;;;;27.42;24.05;;;16.60;99.90;;;;;;4970717;28;20499;-62
2021/06/10 00:13:04;;;;;;;31.88;25.10;;;16.60;99.90;;;;;;4961618;28;20413;-62
2021/06/10 00:15:33;;;;;;;30.20;25.33;;;16.50;99.90;;;;;;4969157;28;20019;-63
2021/06/10 00:18:00;;;;;;;30.55;25.65;;;16.50;99.90;;;;;;4970212;28;20035;-62
2021/06/10 00:20:29;;;;;;;29.73;26.52;;;16.50;99.90;;;;;;4972375;28;20046;-63
2021/06/10 00:22:55;;;;;;;29.38;24.85;;;16.40;99.90;;;;;;4971423;28;20521;-62
2021/06/10 00:25:22;;;;;;;33.22;26.10;;;16.40;99.90;;;;;;4977322;28;20039;-61
2021/06/10 00:27:47;;;;;;;30.85;25.33;;;16.40;99.90;;;;;;4969484;28;20038;-62
2021/06/10 00:30:16;;;;;;;29.17;24.73;;;16.30;99.90;;;;;;4971876;28;20031;-62
2021/06/10 00:32:43;;;;;;;28.55;25.63;;;16.30;99.90;;;;;;4966405;28;20077;-62
2021/06/10 00:35:09;;;;;;;28.83;25.25;;;16.20;99.90;;;;;;4976035;28;20082;-62
2021/06/10 00:37:35;;;;;;;28.92;24.60;;;16.20;99.90;;;;;;4977183;28;20542;-63
2021/06/10 00:40:01;;;;;;;33.33;27.35;;;16.20;99.90;;;;;;4975957;28;20030;-63
2021/06/10 00:42:26;;;;;;;31.42;26.55;;;16.20;99.90;;;;;;4968944;28;20111;-63
2021/06/10 00:44:52;;;;;;;33.03;26.88;;;16.10;99.90;;;;;;4974406;28;20030;-60
2021/06/10 00:47:17;;;;;;;34.25;27.25;;;16.00;99.90;;;;;;4975975;28;20042;-61
2021/06/10 00:49:43;;;;;;;29.98;25.55;;;16.00;99.90;;;;;;4976700;28;21324;-63
2021/06/10 00:52:10;;;;;;;29.48;26.40;;;16.00;99.90;;;;;;4976193;28;20031;-62
2021/06/10 00:54:37;;;;;;;31.13;27.20;;;16.00;99.90;;;;;;4976397;28;20064;-63
2021/06/10 00:57:03;;;;;;;34.05;27.77;;;16.00;99.90;;;;;;4968120;28;20444;-62
2021/06/10 00:59:29;;;;;;;30.48;26.83;;;16.00;99.90;;;;;;4971744;28;20042;-62
2021/06/10 01:01:55;;;;;;;30.00;25.67;;;16.00;99.90;;;;;;4972301;28;20042;-62
2021/06/10 01:04:20;;;;;;;27.42;24.00;;;16.00;99.90;;;;;;4971834;28;20027;-62
2021/06/10 01:06:54;;;;;;;28.35;23.30;;;15.90;99.90;;;;;;4966795;28;20031;-62
2021/06/10 01:09:30;;;;;;;;;;;15.90;99.90;;;;;;4971152;28;20030;-63
2021/06/10 01:12:13;;;;;;;24.40;20.23;;;15.90;99.90;;;;;;4962932;28;19961;-62
2021/06/10 01:15:00;;;;;;;25.80;21.27;;;15.90;99.90;;;;;;4969735;28;20039;-62
2021/06/10 01:17:27;;;;;;;28.35;22.80;;;15.80;99.90;;;;;;4971015;28;20395;-62
2021/06/10 01:20:01;;;;;;;25.42;20.92;;;15.80;99.90;;;;;;4970324;28;20041;-61
2021/06/10 01:22:27;;;;;;;24.15;21.70;;;15.70;99.90;;;;;;4971428;28;20037;-63
2021/06/10 01:25:24;;;;;;;28.40;23.92;;;15.70;99.90;;;;;;4966890;28;20114;-60
2021/06/10 01:27:53;;;;;;;30.15;22.90;;;15.70;99.90;;;;;;4970882;28;20027;-63
2021/06/10 01:30:23;;;;;;;26.50;23.15;;;15.60;99.90;;;;;;4962269;28;20082;-62
2021/06/10 01:32:58;;;;;;;31.05;24.15;;;15.60;99.90;;;;;;4971081;28;20049;-62
2021/06/10 01:35:25;;;;;;;28.88;23.80;;;15.60;99.90;;;;;;4968342;28;20106;-63
2021/06/10 01:37:53;;;;;;;28.05;23.48;;;15.50;99.90;;;;;;4969837;28;20038;-63
2021/06/10 01:40:23;;;;;;;30.30;23.75;;;15.50;99.90;;;;;;4971562;28;20075;-63
2021/06/10 01:42:50;;;;;;;30.77;26.30;;;15.50;99.90;;;;;;4962799;28;20114;-63
2021/06/10 01:45:17;;;;;;;34.33;28.05;;;15.40;99.90;;;;;;4972576;28;20440;-62
2021/06/10 01:47:45;;;;;;;32.33;28.55;;;15.40;99.90;;;;;;4966981;28;20063;-62
2021/06/10 01:50:13;;;;;;;35.17;28.55;;;15.30;99.90;;;;;;4972141;28;20027;-62
2021/06/10 01:52:40;;;;;;;39.45;29.83;;;15.30;99.90;;;;;;4965866;28;20578;-63
2021/06/10 01:55:08;;;;;;;33.00;29.30;;;15.30;99.90;;;;;;4971201;28;20022;-63
2021/06/10 01:57:36;;;;;;;36.72;31.67;;;15.30;99.90;;;;;;4968750;28;20063;-63
2021/06/10 02:00:04;;;;;;;36.97;32.35;;;15.20;99.90;;;;;;4961287;28;20026;-63
2021/06/10 02:02:30;;;;;;;40.05;32.85;;;15.20;99.90;;;;;;4966571;28;20109;-63
2021/06/10 02:04:56;;;;;;;36.60;32.35;;;15.20;99.90;;;;;;4965949;28;20023;-62
2021/06/10 02:07:23;;;;;;;39.75;34.03;;;15.20;99.90;;;;;;4970994;28;20034;-62
2021/06/10 02:09:49;;;;;;;39.78;34.05;;;15.20;99.90;;;;;;4961970;28;20066;-63
2021/06/10 02:12:14;;;;;;;37.78;33.72;;;15.20;99.90;;;;;;4970393;28;20062;-63
2021/06/10 02:14:42;;;;;;;47.13;34.88;;;15.30;99.90;;;;;;4962579;28;20027;-63
2021/06/10 02:17:08;;;;;;;40.28;34.83;;;15.40;99.90;;;;;;4968675;28;20043;-62
2021/06/10 02:19:36;;;;;;;40.53;35.90;;;15.40;99.90;;;;;;4971436;28;20090;-63
2021/06/10 02:22:02;;;;;;;42.80;37.53;;;15.50;99.90;;;;;;4968820;28;20485;-63
2021/06/10 02:24:28;;;;;;;40.08;33.40;;;15.50;99.90;;;;;;4969897;28;20094;-62
2021/06/10 02:26:53;;;;;;;34.10;29.70;;;15.50;99.90;;;;;;4964578;28;20507;-61
2021/06/10 02:29:19;;;;;;;37.40;29.27;;;15.60;99.90;;;;;;4969417;28;20114;-61
2021/06/10 02:31:45;;;;;;;32.15;27.50;;;15.60;99.90;;;;;;4962421;28;20039;-62
2021/06/10 02:34:12;;;;;;;35.75;30.80;;;15.60;99.90;;;;;;4967610;28;20110;-61
2021/06/10 02:36:40;;;;;;;35.38;27.48;;;15.50;99.90;;;;;;4946692;28;20034;-63
2021/06/10 02:39:09;;;;;;;34.92;29.38;;;15.50;99.90;;;;;;4968712;28;20043;-63
2021/06/10 02:41:39;;;;;;;40.88;29.73;;;15.50;99.90;;;;;;4970207;28;20117;-63
2021/06/10 02:44:07;;;;;;;33.90;30.13;;;15.40;99.90;;;;;;4960032;28;20045;-63
2021/06/10 02:46:34;;;;;;;32.97;28.98;;;15.30;99.90;;;;;;4970487;28;20034;-63
2021/06/10 02:49:00;;;;;;;36.40;30.05;;;15.20;99.90;;;;;;4967377;28;20019;-63
2021/06/10 02:51:31;;;;;;;34.95;28.25;;;15.10;99.90;;;;;;4969117;28;20039;-63
2021/06/10 02:53:58;;;;;;;41.25;29.23;;;15.10;99.90;;;;;;4967505;28;20086;-63
2021/06/10 02:56:25;;;;;;;32.22;28.65;;;15.00;99.90;;;;;;4957673;28;20113;-63
2021/06/10 02:58:52;;;;;;;38.92;30.80;;;15.00;99.90;;;;;;4968037;28;20038;-62
2021/06/10 03:01:18;;;;;;;38.78;29.63;;;15.00;99.90;;;;;;4965895;28;20291;-63
2021/06/10 03:03:44;;;;;;;33.22;29.50;;;14.90;99.90;;;;;;4967258;28;20512;-63
2021/06/10 03:06:10;;;;;;;35.05;29.73;;;14.90;99.90;;;;;;4969416;28;20042;-63
2021/06/10 03:08:36;;;;;;;35.38;30.75;;;14.80;99.90;;;;;;4969500;28;20476;-63
2021/06/10 03:11:05;;;;;;;32.90;29.15;;;14.80;99.90;;;;;;4969746;28;20080;-61
2021/06/10 03:13:32;;;;;;;33.65;29.67;;;14.80;99.90;;;;;;4970386;28;20539;-62
2021/06/10 03:16:00;;;;;;;30.80;27.48;;;14.80;99.90;;;;;;4961023;28;20101;-63
2021/06/10 03:18:26;;;;;;;41.95;32.75;;;14.80;99.90;;;;;;4970576;28;20400;-62
2021/06/10 03:20:52;;;;;;;33.60;29.85;;;14.80;99.90;;;;;;4966946;28;20102;-62
2021/06/10 03:23:18;;;;;;;40.40;32.90;;;14.90;99.90;;;;;;4967266;28;20027;-62
2021/06/10 03:25:44;;;;;;;34.65;30.85;;;14.90;99.90;;;;;;4964959;28;20026;-61
2021/06/10 03:28:10;;;;;;;33.78;28.73;;;15.00;99.90;;;;;;4967228;28;20034;-62
2021/06/10 03:30:37;;;;;;;29.40;25.73;;;15.00;99.90;;;;;;4969851;28;20101;-61
2021/06/10 03:33:05;;;;;;;32.40;26.52;;;15.00;99.90;;;;;;4965547;28;20023;-62
2021/06/10 03:35:34;;;;;;;30.02;25.63;;;15.00;99.90;;;;;;4966693;28;20026;-62
2021/06/10 03:38:00;;;;;;;35.63;29.88;;;15.00;99.90;;;;;;4970416;28;20388;-61
2021/06/10 03:40:27;;;;;;;32.90;29.33;;;15.00;99.90;;;;;;4967387;28;20031;-60
2021/06/10 03:42:53;;;;;;;36.28;31.85;;;14.90;99.90;;;;;;4964605;28;20378;-62
2021/06/10 03:45:19;;;;;;;36.00;31.67;;;14.90;99.90;;;;;;4967563;28;20050;-61
2021/06/10 03:47:45;;;;;;;35.90;32.13;;;14.90;99.90;;;;;;4969938;28;20027;-61
2021/06/10 03:50:12;;;;;;;39.25;31.80;;;14.90;99.90;;;;;;4969602;28;20042;-61
2021/06/10 03:52:39;;;;;;;37.30;30.13;;;15.00;99.90;;;;;;4963358;28;20042;-61
2021/06/10 03:55:07;;;;;;;35.65;31.98;;;15.10;99.90;;;;;;4969860;28;20027;-62
2021/06/10 03:57:33;;;;;;;35.75;30.58;;;15.10;99.90;;;;;;4966024;28;20517;-60
2021/06/10 03:59:59;;;;;;;34.60;30.45;;;15.10;99.90;;;;;;4968503;28;20039;-61
2021/06/10 04:02:25;;;;;;;33.78;30.20;;;15.10;99.90;;;;;;4970837;28;20026;-61
2021/06/10 04:04:52;;;;;;;39.38;35.28;;;15.10;99.90;;;;;;4972688;28;20563;-61
2021/06/10 04:07:18;;;;;;;39.90;33.85;;;15.10;99.90;;;;;;4974092;28;20031;-62
2021/06/10 04:09:43;;;;;;;37.40;33.50;;;15.20;99.90;;;;;;4966389;28;20081;-61
2021/06/10 04:12:09;;;;;;;33.25;29.75;;;15.40;99.90;;;;;;4971607;28;20062;-62
2021/06/10 04:14:35;;;;;;;37.88;29.55;;;15.50;99.90;;;;;;4972363;28;20046;-61
2021/06/10 04:17:01;;;;;;;38.28;29.38;;;15.60;99.90;;;;;;4972280;28;20043;-62
2021/06/10 04:19:27;;;;;;;36.17;27.77;;;15.70;99.90;;;;;;4973374;28;20066;-62
2021/06/10 04:21:52;;;;;;;34.80;27.25;;;15.80;99.90;;;;;;4972047;28;20164;-61
2021/06/10 04:24:18;;;;;;;30.77;27.17;;;16.00;99.90;;;;;;4972309;28;20405;-58
2021/06/10 04:26:43;;;;;;;31.77;25.67;;;16.10;99.90;;;;;;4972730;28;20081;-58
2021/06/10 04:29:09;;;;;;;30.77;25.92;;;16.30;99.90;;;;;;4973115;28;20019;-57
2021/06/10 04:31:35;;;;;;;28.83;24.70;;;16.50;99.90;;;;;;4973045;28;20428;-59
2021/06/10 04:34:00;;;;;;;28.83;24.83;;;16.90;99.90;;;;;;4972309;28;20049;-56
2021/06/10 04:36:26;;;;;;;25.52;21.83;;;17.40;99.90;;;;;;4965843;28;20430;-60
2021/06/10 04:38:51;;;;;;;22.33;18.77;;;18.10;99.90;;;;;;4969788;28;20035;-58
2021/06/10 04:41:17;;;;;;;19.77;17.38;;;18.90;99.90;;;;;;4972901;28;20035;-59
2021/06/10 04:43:43;;;;;;;20.50;17.45;;;19.40;99.90;;;;;;4965468;28;20022;-58
2021/06/10 04:46:09;;;;;;;16.77;14.32;;;19.90;99.90;;;;;;4971962;28;20027;-60
2021/06/10 04:48:36;;;;;;;15.65;13.32;;;20.60;99.90;;;;;;4972903;28;20058;-58
2021/06/10 04:51:02;;;;;;;16.58;12.85;;;21.10;99.90;;;;;;4963878;28;20035;-57
2021/06/10 04:53:28;;;;;;;16.77;13.10;;;21.60;99.90;;;;;;4965979;28;20039;-58
2021/06/10 04:55:54;;;;;;;13.15;11.88;;;21.90;99.90;;;;;;4969404;28;20408;-59
2021/06/10 04:58:19;;;;;;;14.60;11.93;;;22.30;99.90;;;;;;4968119;28;20073;-60
2021/06/10 05:00:45;;;;;;;21.88;12.43;;;22.50;99.90;;;;;;4965845;28;20022;-59
2021/06/10 05:03:10;;;;;;;15.32;12.60;;;23.30;99.40;;;;;;4970748;28;20031;-60
2021/06/10 05:05:38;;;;;;;15.25;13.32;;;24.20;98.10;;;;;;4971046;28;20404;-59
2021/06/10 05:08:04;;;;;;;15.20;13.23;;;25.00;95.70;;;;;;4967461;28;20390;-58
2021/06/10 05:10:30;;;;;;;19.33;13.27;;;25.50;94.20;;;;;;4969675;28;20035;-60
2021/06/10 05:12:56;;;;;;;16.45;14.20;;;25.60;93.70;;;;;;4971818;28;20070;-57
2021/06/10 05:15:21;;;;;;;14.43;13.00;;;25.70;92.90;;;;;;4969336;28;20027;-60
2021/06/10 05:17:47;;;;;;;20.55;14.73;;;25.70;92.80;;;;;;4971455;28;20058;-62
2021/06/10 05:20:13;;;;;;;17.42;14.73;;;25.00;92.50;;;;;;4967774;28;20031;-61
2021/06/10 05:22:39;;;;;;;16.90;15.15;;;25.30;92.90;;;;;;4970550;28;20039;-61
2021/06/10 05:25:05;;;;;;;14.73;12.90;;;25.70;91.80;;;;;;4968924;28;20031;-59
2021/06/10 05:27:33;;;;;;;17.75;12.15;;;26.10;91.70;;;;;;4968161;28;20186;-59
2021/06/10 05:29:59;;;;;;;14.88;13.48;;;26.50;91.00;;;;;;4964994;28;20049;-61
2021/06/10 05:32:24;;;;;;;14.82;12.68;;;26.40;90.00;;;;;;4972313;28;20031;-60
2021/06/10 05:34:50;;;;;;;14.65;13.10;;;26.10;89.40;;;;;;4970902;28;20546;-58
2021/06/10 05:37:16;;;;;;;14.07;11.43;;;26.30;89.70;;;;;;4967679;28;20038;-63
2021/06/10 05:39:41;;;;;;;19.75;12.45;;;26.40;90.00;;;;;;4968746;28;20631;-58
2021/06/10 05:42:07;;;;;;;13.43;11.95;;;26.50;88.60;;;;;;4972062;28;20019;-59
2021/06/10 05:44:33;;;;;;;13.93;12.25;;;26.50;88.20;;;;;;4971834;28;20037;-60
2021/06/10 05:46:58;;;;;;;13.43;11.82;;;26.80;85.60;;;;;;4970715;28;20027;-56
2021/06/10 05:49:24;;;;;;;17.52;12.55;;;26.80;86.30;;;;;;4971423;28;20043;-57
2021/06/10 05:51:49;;;;;;;11.73;10.10;;;27.30;86.40;;;;;;4970569;28;20503;-58
2021/06/10 05:54:15;;;;;;;12.95;11.07;;;28.70;81.10;;;;;;4971753;28;20034;-59
2021/06/10 05:56:40;;;;;;;14.57;10.85;;;29.20;76.90;;;;;;4965597;28;20039;-58
2021/06/10 05:59:07;;;;;;;11.48;10.48;;;28.70;78.10;;;;;;4965604;28;20035;-58
2021/06/10 06:01:33;;;;;;;12.27;10.88;;;28.10;79.80;;;;;;4974922;28;20037;-60
2021/06/10 06:03:58;;;;;;;15.38;11.40;;;28.00;79.60;;;;;;4971112;28;20459;-59
2021/06/10 06:06:25;;;;;;;18.42;12.15;;;28.80;77.00;;;;;;4972157;28;20081;-59
2021/06/10 06:08:51;;;;;;;13.02;10.27;;;29.30;73.90;;;;;;4966680;28;20452;-59
2021/06/10 06:11:16;;;;;;;12.13;10.93;;;29.60;72.70;;;;;;4972341;28;20034;-61
2021/06/10 06:13:45;;;;;;;12.20;10.95;;;28.80;72.00;;;;;;4970042;28;20031;-60
2021/06/10 06:16:13;;;;;;;10.82;9.82;;;28.70;72.60;;;;;;4960378;28;20456;-60
2021/06/10 06:18:39;;;;;;;13.02;11.65;;;29.00;74.80;;;;;;4960752;28;20094;-60
2021/06/10 06:21:05;;;;;;;14.65;12.07;;;29.10;72.60;;;;;;4960885;28;20031;-60
2021/06/10 06:23:31;;;;;;;9.57;8.60;;;28.50;73.80;;;;;;4968167;28;20030;-60
2021/06/10 06:25:58;;;;;;;13.02;10.90;;;28.80;74.30;;;;;;4966002;28;20039;-59
2021/06/10 06:28:23;;;;;;;14.73;11.10;;;28.70;72.80;;;;;;4969002;28;20393;-60
2021/06/10 06:30:49;;;;;;;14.82;11.82;;;27.90;73.80;;;;;;4972485;28;20082;-59
2021/06/10 06:33:15;;;;;;;13.88;11.20;;;26.70;76.20;;;;;;4967505;28;20042;-60
2021/06/10 06:35:43;;;;;;;13.07;11.02;;;25.80;80.00;;;;;;4970462;28;20023;-60
2021/06/10 06:38:08;;;;;;;16.42;12.38;;;26.30;80.40;;;;;;4969248;28;20481;-60
2021/06/10 06:40:34;;;;;;;13.07;11.85;;;26.70;79.20;;;;;;4974961;28;20034;-60
2021/06/10 06:43:00;;;;;;;13.77;11.73;;;26.50;81.00;;;;;;4969683;28;20077;-59
2021/06/10 06:45:26;;;;;;;13.50;12.07;;;26.40;81.30;;;;;;4970555;28;20145;-60
2021/06/10 06:47:52;;;;;;;14.63;11.35;;;26.40;81.00;;;;;;4970322;28;20125;-58
2021/06/10 06:50:18;;;;;;;13.02;11.45;;;27.70;80.40;;;;;;4969112;28;20037;-60
2021/06/10 06:52:43;;;;;;;11.57;10.38;;;28.20;78.50;;;;;;4976592;28;20037;-60
2021/06/10 06:55:10;;;;;;;14.68;10.88;;;29.70;73.90;;;;;;4976370;28;20039;-60
2021/06/10 06:57:35;;;;;;;13.75;10.68;;;30.00;72.60;;;;;;4979490;28;20027;-59
2021/06/10 07:00:01;;;;;;;14.15;9.98;;;29.70;71.40;;;;;;4949095;28;20035;-60
2021/06/10 07:02:27;;;;;;;13.00;10.80;;;30.10;71.90;;;;;;4972107;28;20463;-61
2021/06/10 07:04:54;;;;;;;12.60;9.45;;;29.70;70.30;;;;;;4978684;28;20115;-59
2021/06/10 07:07:19;;;;;;;14.88;10.38;;;30.00;72.40;;;;;;4977992;28;20426;-60
2021/06/10 07:09:45;;;;;;;14.13;10.00;;;30.20;69.40;;;;;;4982699;28;20037;-60
2021/06/10 07:12:11;;;;;;;11.95;10.65;;;30.30;70.00;;;;;;4972786;28;20035;-58
2021/06/10 07:14:37;;;;;;;13.93;9.52;;;30.50;68.20;;;;;;4984803;28;20035;-60
2021/06/10 07:17:03;;;;;;;12.30;11.05;;;30.20;69.70;;;;;;4965186;28;20034;-61
2021/06/10 07:19:29;;;;;;;10.60;8.45;;;30.30;69.20;;;;;;4970709;28;20117;-60
2021/06/10 07:21:54;;;;;;;11.77;10.57;;;31.80;67.60;;;;;;4969429;28;20476;-61
2021/06/10 07:24:20;;;;;;;11.30;9.55;;;31.40;66.10;;;;;;4971129;28;20086;-60
2021/06/10 07:26:46;;;;;;;13.48;10.85;;;33.00;64.40;;;;;;4917391;28;20049;-61
2021/06/10 07:29:14;;;;;;;12.70;10.32;;;33.40;61.20;;;;;;4957981;28;20591;-59
2021/06/10 07:31:40;;;;;;;11.98;10.20;;;32.80;63.20;;;;;;4973485;28;20500;-60
2021/06/10 07:34:06;;;;;;;12.43;10.55;;;32.00;62.30;;;;;;4970324;28;20058;-60
2021/06/10 07:36:33;;;;;;;10.23;9.18;;;31.30;62.90;;;;;;4967956;28;20106;-60
2021/06/10 07:39:00;;;;;;;11.50;10.02;;;32.20;64.00;;;;;;4966440;28;20027;-60
2021/06/10 07:41:25;;;;;;;11.75;10.10;;;32.60;62.50;;;;;;4966082;28;20118;-61
2021/06/10 07:43:51;;;;;;;14.07;10.85;;;33.60;61.40;;;;;;4973894;28;20113;-60
2021/06/10 07:46:17;;;;;;;13.88;10.25;;;34.40;58.60;;;;;;4965981;28;20077;-59
2021/06/10 07:48:42;;;;;;;11.52;9.50;;;34.30;57.30;;;;;;4969070;28;20041;-60
2021/06/10 07:51:08;;;;;;;11.77;10.57;;;33.50;58.80;;;;;;4963649;28;20023;-60
2021/06/10 07:53:35;;;;;;;15.27;12.35;;;33.50;56.80;;;;;;4969422;28;20389;-60
2021/06/10 07:56:03;;;;;;;17.30;10.52;;;33.30;57.70;;;;;;4961734;28;20031;-62
2021/06/10 07:58:29;;;;;;;16.77;12.02;;;33.70;58.00;;;;;;4963929;28;20488;-60
2021/06/10 08:00:55;;;;;;;15.00;11.38;;;34.60;56.00;;;;;;4943153;28;20046;-59
2021/06/10 08:03:21;;;;;;;15.35;11.75;;;35.20;54.90;;;;;;4973340;28;20488;-60
2021/06/10 08:05:47;;;;;;;17.23;13.15;;;35.20;54.50;;;;;;4971171;28;20027;-61
2021/06/10 08:08:13;;;;;;;14.27;12.77;;;35.30;54.30;;;;;;4971269;28;20031;-61
2021/06/10 08:10:40;;;;;;;21.45;14.75;;;34.70;54.20;;;;;;4964202;28;20489;-61
2021/06/10 08:13:08;;;;;;;15.38;13.73;;;35.60;53.50;;;;;;4972202;28;20488;-60
2021/06/10 08:15:35;;;;;;;15.73;13.90;;;34.80;53.50;;;;;;4968685;28;20468;-61
2021/06/10 08:18:00;;;;;;;16.25;14.68;;;35.30;52.80;;;;;;4968618;28;20384;-60
2021/06/10 08:20:28;;;;;;;15.95;14.35;;;36.00;50.20;;;;;;4968435;28;20035;-59
2021/06/10 08:22:55;;;;;;;13.95;12.52;;;35.50;49.40;;;;;;4962902;28;20094;-59
2021/06/10 08:25:21;;;;;;;17.70;13.38;;;35.00;51.00;;;;;;4963046;28;20508;-61
2021/06/10 08:27:46;;;;;;;20.90;12.20;;;35.50;50.70;;;;;;4972911;28;20035;-60
2021/06/10 08:30:13;;;;;;;16.67;13.30;;;35.50;51.80;;;;;;4968820;28;20038;-59
2021/06/10 08:32:39;;;;;;;20.50;14.35;;;35.20;48.60;;;;;;4969635;28;20038;-59
2021/06/10 08:35:06;;;;;;;18.40;14.50;;;34.20;50.40;;;;;;4971148;28;20511;-61
2021/06/10 08:37:31;;;;;;;14.88;13.48;;;34.10;50.50;;;;;;4968573;28;20497;-61
2021/06/10 08:39:57;;;;;;;16.77;12.50;;;33.80;51.10;;;;;;4969397;28;20051;-60
2021/06/10 08:42:23;;;;;;;15.57;12.38;;;34.20;53.10;;;;;;4970193;28;20441;-61
2021/06/10 08:44:50;;;;;;;16.30;11.95;;;34.40;51.30;;;;;;4972360;28;20106;-60
2021/06/10 08:47:21;;;;;;;11.13;10.00;;;36.00;49.00;;;;;;4972360;28;20030;-60
2021/06/10 08:49:49;;;;;;;13.57;12.18;;;36.10;48.10;;;;;;4968888;28;20039;-61
2021/06/10 08:52:15;;;;;;;13.25;12.02;;;34.70;48.60;;;;;;4961044;28;20050;-60
2021/06/10 08:54:41;;;;;;;16.80;12.48;;;34.60;49.10;;;;;;4970657;28;20074;-60
2021/06/10 08:57:10;;;;;;;15.40;12.65;;;35.50;47.20;;;;;;4965827;28;20073;-60
2021/06/10 08:59:36;;;;;;;10.85;9.75;;;35.50;46.80;;;;;;4966519;28;20122;-60
2021/06/10 09:02:02;;;;;;;17.52;12.52;;;35.70;47.10;;;;;;4956363;28;20466;-60
2021/06/10 09:04:27;;;;;;;11.52;10.27;;;35.10;47.50;;;;;;4969325;28;20740;-60
2021/06/10 09:06:54;;;;;;;11.77;9.02;;;35.00;47.10;;;;;;4966787;28;20098;-61
2021/06/10 09:09:22;;;;;;;11.68;10.48;;;35.20;47.80;;;;;;4965764;28;20058;-61
2021/06/10 09:11:48;;;;;;;9.88;7.85;;;34.90;47.60;;;;;;4970340;28;20030;-60
2021/06/10 09:14:14;;;;;;;13.85;8.35;;;34.20;47.00;;;;;;4971897;28;20540;-61
2021/06/10 09:16:40;;;;;;;9.05;7.40;;;33.30;46.00;;;;;;4967556;28;20038;-60
2021/06/10 09:19:13;;;;;;;8.70;6.97;;;32.90;47.80;;;;;;4970727;28;20049;-60
2021/06/10 09:21:44;;;;;;;8.55;7.28;;;33.80;49.70;;;;;;4970157;28;20488;-61
2021/06/10 09:24:25;;;;;;;13.93;6.50;;;33.90;48.40;;;;;;4967513;28;20473;-59
2021/06/10 09:27:01;;;;;;;7.80;6.47;;;33.20;47.30;;;;;;4963751;28;20089;-61
2021/06/10 09:29:46;;;;;;;7.95;4.53;;;33.00;46.90;;;;;;4965582;28;20497;-59
2021/06/10 09:32:15;;;;;;;8.77;4.65;;;33.70;46.70;;;;;;4968316;28;20038;-61
2021/06/10 09:34:46;;;;;;;9.93;4.35;;;34.10;43.50;;;;;;4967058;28;20523;-61
2021/06/10 09:37:13;;;;;;;5.43;4.07;;;33.90;45.40;;;;;;4971226;28;20062;-61
2021/06/10 09:39:53;;;;;;;8.65;4.55;;;34.00;46.00;;;;;;4968507;28;20042;-59
2021/06/10 09:42:37;;;;;;;9.13;4.45;;;34.30;43.80;;;;;;4970672;28;20038;-61
2021/06/10 09:45:09;;;;;;;7.97;4.47;;;33.20;44.00;;;;;;4970219;28;20047;-59
2021/06/10 09:47:40;;;;;;;6.72;4.30;;;33.30;44.50;;;;;;4969996;28;20437;-60
2021/06/10 09:50:52;;;;;;;6.50;4.03;;;33.80;45.10;;;;;;4966332;28;20046;-60
2021/06/10 09:53:23;;;;;;;5.17;3.40;;;33.40;45.80;;;;;;4970418;28;20033;-61
2021/06/10 09:56:18;;;;;;;6.53;3.38;;;34.00;46.80;;;;;;4971142;28;20288;-59
2021/06/10 09:58:45;;;;;;;9.15;4.97;;;34.30;44.50;;;;;;4959737;28;20050;-61
2021/06/10 10:01:19;;;;;;;5.95;4.45;;;34.10;45.00;;;;;;4954973;28;20528;-60
2021/06/10 10:03:47;;;;;;;6.85;3.63;;;33.90;43.40;;;;;;4963542;28;20057;-60
2021/06/10 10:06:20;;;;;;;5.68;3.67;;;33.40;45.70;;;;;;4963847;28;20034;-60
2021/06/10 10:08:48;;;;;;;6.28;4.40;;;33.00;45.30;;;;;;4968207;28;20019;-60
2021/06/10 10:11:15;;;;;;;8.20;4.20;;;32.90;43.60;;;;;;4963586;28;20027;-60
2021/06/10 10:13:43;;;;;;;5.25;4.50;;;32.70;46.40;;;;;;4970365;28;20447;-60
2021/06/10 10:16:10;;;;;;;9.95;4.32;;;32.60;46.20;;;;;;4972358;28;20026;-59
2021/06/10 10:18:37;;;;;;;6.53;4.50;;;32.20;46.00;;;;;;4969827;28;20092;-58
2021/06/10 10:21:05;;;;;;;5.70;3.58;;;31.80;49.50;;;;;;4968717;28;20027;-57
2021/06/10 10:23:32;;;;;;;5.75;2.65;;;31.40;44.60;;;;;;4974942;28;20030;-58
2021/06/10 10:26:04;;;;;;;5.55;2.60;;;31.20;45.60;;;;;;4981263;28;20081;-59
2021/06/10 10:28:34;;;;;;;5.93;1.80;;;30.60;45.50;;;;;;4977362;28;20365;-59
2021/06/10 10:31:00;;;;;;;6.03;1.95;;;30.80;46.10;;;;;;4980351;28;20078;-60
2021/06/10 10:33:26;;;;;;;5.47;2.58;;;30.80;47.10;;;;;;4980299;28;20045;-59
2021/06/10 10:36:02;;;;;;;3.08;2.28;;;31.00;47.00;;;;;;4971311;28;20025;-58
2021/06/10 10:38:36;;;;;;;3.22;2.30;;;31.10;46.90;;;;;;4970415;28;20027;-59
2021/06/10 10:41:18;;;;;;;7.78;2.75;;;31.30;45.60;;;;;;4970064;28;20038;-58
2021/06/10 10:43:44;;;;;;;7.40;2.95;;;31.20;45.70;;;;;;4968429;28;20030;-58
2021/06/10 10:46:18;;;;;;;3.22;2.28;;;30.70;45.90;;;;;;4969392;28;20599;-59
2021/06/10 10:48:46;;;;;;;5.82;2.30;;;30.20;49.30;;;;;;4962943;28;20440;-57
2021/06/10 10:51:38;;;;;;;3.97;2.63;;;30.30;47.00;;;;;;4968187;28;20536;-60
2021/06/10 10:54:25;;;;;;;7.97;2.83;;;30.40;45.70;;;;;;4964005;28;20103;-59
2021/06/10 10:56:51;;;;;;;5.53;3.25;;;30.00;47.10;;;;;;4964949;28;20027;-60
2021/06/10 10:59:21;;;;;;;6.25;3.38;;;29.40;49.30;;;;;;4967706;28;20089;-59
2021/06/10 11:02:10;;;;;;;7.93;2.85;;;29.00;47.50;;;;;;4951453;28;20050;-57
2021/06/10 11:04:56;;;;;;;5.30;2.25;;;29.10;50.00;;;;;;4965512;28;20054;-60
2021/06/10 11:07:40;;;;;;;5.45;2.90;;;29.80;50.00;;;;;;4972602;28;20030;-58
2021/06/10 11:10:09;;;;;;;5.07;3.10;;;30.00;48.00;;;;;;4969813;28;20031;-59
2021/06/10 11:12:43;;;;;;;4.90;3.25;;;29.80;46.60;;;;;;4973672;28;20404;-57
2021/06/10 11:15:38;;;;;;;6.50;3.88;;;29.70;47.00;;;;;;4974219;28;20031;-58
2021/06/10 11:18:07;;;;;;;15.90;3.80;;;29.70;45.70;;;;;;4968213;28;20030;-58
2021/06/10 11:20:38;;;;;;;5.95;3.60;;;29.80;46.70;;;;;;4972766;28;20031;-60
2021/06/10 11:23:28;;;;;;;7.20;3.00;;;29.70;49.10;;;;;;4964706;28;20046;-58
2021/06/10 11:25:57;;;;;;;6.05;3.65;;;29.10;49.30;;;;;;4964914;28;20809;-59
2021/06/10 11:28:29;;;;;;;4.82;2.85;;;29.20;49.40;;;;;;4969983;28;20114;-60
2021/06/10 11:31:14;;;;;;;6.03;3.35;;;29.20;48.80;;;;;;4969049;28;20122;-58
2021/06/10 11:33:40;;;;;;;7.90;3.42;;;29.00;50.60;;;;;;4965694;28;20027;-58
2021/06/10 11:36:07;;;;;;;7.18;3.38;;;29.10;48.70;;;;;;4968107;28;20440;-59
2021/06/10 11:38:43;;;;;;;7.55;3.47;;;29.30;51.20;;;;;;4966871;28;20405;-60
2021/06/10 11:41:17;;;;;;;8.25;3.80;;;29.50;51.30;;;;;;4970725;28;20027;-59
2021/06/10 11:43:54;;;;;;;6.15;3.92;;;29.60;50.90;;;;;;4973235;28;20019;-58
2021/06/10 11:46:19;;;;;;;6.88;3.53;;;29.60;48.20;;;;;;4971412;28;20026;-59
2021/06/10 11:48:47;;;;;;;9.27;3.22;;;29.80;50.30;;;;;;4969653;28;20535;-60
2021/06/10 11:51:28;;;;;;;5.47;3.05;;;29.60;48.20;;;;;;4968910;28;20026;-59
2021/06/10 11:54:11;;;;;;;6.40;3.53;;;29.80;48.80;;;;;;4973135;28;20027;-58
2021/06/10 11:56:37;;;;;;;;;;;29.30;47.80;;;;;;4962920;28;20037;-60
2021/06/10 11:59:28;;;;;;;5.63;2.55;;;29.10;49.40;;;;;;4964767;28;20004;-58
2021/06/10 12:02:10;;;;;;;5.50;3.03;;;28.80;49.40;;;;;;4957898;28;20157;-58
2021/06/10 12:04:40;;;;;;;4.43;2.97;;;28.70;48.80;;;;;;4972424;28;20486;-57
2021/06/10 12:07:10;;;;;;;6.10;2.72;;;28.30;50.30;;;;;;4964248;28;20484;-59
2021/06/10 12:09:51;;;;;;;8.60;2.50;;;28.30;49.80;;;;;;4971082;28;20052;-60
2021/06/10 12:12:39;;;;;;;5.82;2.72;;;28.50;52.70;;;;;;4967763;28;20038;-57
2021/06/10 12:15:07;;;;;;;4.75;2.88;;;28.60;52.30;;;;;;4964098;28;20035;-59
2021/06/10 12:18:14;;;;;;;10.80;3.63;;;28.60;50.70;;;;;;4971801;28;20492;-59
2021/06/10 12:20:44;;;;;;;7.55;3.72;;;28.60;50.50;;;;;;4955928;28;20229;-57
2021/06/10 12:23:16;;;;;;;5.35;3.47;;;28.50;49.80;;;;;;4969550;28;20030;-58
2021/06/10 12:25:57;;;;;;;7.80;3.50;;;28.50;51.50;;;;;;4971668;28;20022;-59
2021/06/10 12:28:36;;;;;;;8.32;3.03;;;28.40;50.60;;;;;;4967816;28;20030;-59
2021/06/10 12:31:03;;;;;;;3.65;3.10;;;28.10;52.30;;;;;;4966342;28;20031;-58
2021/06/10 12:33:29;;;;;;;9.70;3.72;;;27.50;52.80;;;;;;4963143;28;20038;-57
2021/06/10 12:35:56;;;;;;;11.07;3.78;;;27.50;52.40;;;;;;4971924;28;20023;-58
2021/06/10 12:38:28;;;;;;;8.70;2.97;;;27.40;52.60;;;;;;4972593;28;20031;-58
2021/06/10 12:40:54;;;;;;;5.97;3.33;;;27.20;54.60;;;;;;4964435;28;20507;-60